Portada
METAR-TAF:

METAR-TAF

Aeroports :

Aeroport de Fuerteventura

Fuerteventura, Espanya

latitud: 28-27N, longitud: 013-52W, altitud: 22 m

Observació

L'informe es va fer fa 37 minuts, a les 17:30 UTC
Vent 15 kt del Nord-Est
Temperatura 24°C
Humitat 69%
Pressió 1018 hPa
Visibilitat 10 km o més
Núvols disperses a una alçada de 2500 ft

METAR: GCFV 051730Z 04015KT 9999 SCT025 24/18 Q1018

Hora: 19:07 (18:07 UTC)

Pronòstic

L'informe es va fer fa 4 hores i 7 minuts, a les 14:00 UTC
Pronòstic vàlid del 05 a les 15 UTC al 06 a les 15 UTC
Vent 18 kt del Nord-Est
Visibilitat 10 km o més
Escasses núvols a una alçada de 2500 ft

TAF: GCFV 051400Z 0515/0615 05018KT 9999 FEW025 TX26/0614Z TN20/0606Z

Observacions i pronòstics meteorològics de més de 4000 aeroports (METAR i TAF).

Les estacions disponibles són els punts grocs i vermells al mapa.

Posi el ratolí al punt desitjat per veure el nom de l'estació.

Feu clic per veure les observacions i els pronòstics meteorològics.

Per canviar el mapa: feu clic els botons verds amb una creu de color negre per apropar; al botó verd amb un guió per allunyar la imatge; o en les fletxes verdes per a mapes adjacents.


METAR-TAF: